Terminal Aerodrome Forecast
Issued by NWS

Home | Current Version | Previous Version | Text Only | Print | Product List | Glossary On
Versions: 1 2 3 4 5 6 7 8 9 10 11 12 13 14 15
819
FTUS42 KTBW 252328
TAFPGD
TAF
KPGD 252328Z 2600/2624 18005KT P6SM SCT035 BKN100
     FM260500 VRB03KT P6SM FEW035 SCT100 SCT250
     FM261500 14007KT P6SM SCT030 SCT250
     FM261800 22007KT P6SM VCTS SCT040CB SCT250=

USA.gov is the U.S. government's official web portal to all federal, state and local government web resources and services.